Hauptseite
METAR-TAF:

METAR-TAF

Flughäfen :

Verkehrslandeplatz Hof-Plauen

Hof, Deutschland

Breite: 50-19N, Länge: 011-53E, Höhe: 567 m

Beobachtung

Neuester Wetterbericht von vor 24 Minuten, um 09:50 UTC
Wind 5 kt aus Ost/Südost, variierte zwischen Ost/Nordost und Südost
Temperatur 5°C
Luftfeuchtigkeit 75%
Luftdruck 1030 hPa
Sichtweite 10 km oder mehr
keine Wolken unter 1500 m und keine Kumulonimbus oder Gewitterwolken

METAR: EDQM 160950Z 11005KT 070V140 CAVOK 05/01 Q1030

Zeit: 11:14 (10:14 UTC)

Prognose

Neuester Wetterbericht von vor 2 Stunden und 14 Minuten, um 08:00 UTC
Gültige Prognose vom 16 um 09 UTC bis 16 um 18 UTC
Wind 5 kt aus Ost/Südost
Sichtweite 10 km oder mehr
keine Wolken unter 1500 m und keine Kumulonimbus oder Gewitterwolken

TAF: EDQM 160800Z 1609/1618 12005KT CAVOK

Wetterbeobachtungen und Prognosen von mehr als 4000 Flughäfen (METAR und TAF Bericht).

Die verfügbaren Stationen werden durch gelbe und rote Markierungen auf der Karte dargestellt.

Führen Sie die Maus auf sie, um den Namen der Station zu sehen.

Darauf klicken, um die Beobachtung von Wetterbeobachtungen und Prognosen zu sehen.

Um die Karte zu ändern : klicken Sie auf den grünen Tasten mit einem schwarzen Kreuz Zum Vergrößern, auf den grünen Button mit einem Gedankenstrich zu verkleinern, oder auf die grünen Pfeile für benachbarte Karten.


METAR-TAF: